MVV weather

Megève Airport
Verdun, Auvergne-Rhône-Alpes, France

Public forecast

Using degrees Celsius for public forecast. Weather courtesy of forecast.io.

Closest aviation weather report (METAR) to Megève Airport

Closest report is Annecy-Haute-Savoie-Mont Blanc Airport, 23.8 nm (44.0 km) WNW. Retrieved 2020/01/24 04:30 UTC (0 seconds ago):

LFLP 240430Z AUTO 31006KT 5000 BR NSC M01/M02 Q1024 NOSIG

Closest aviation forecast (TAF) to Megève Airport

Closest forecast is Annecy-Haute-Savoie-Mont Blanc Airport, 23.8 nm (44.0 km) WNW. Retrieved 2020-01-24 03:00 UTC (1 hour ago):

TAF LFLP 240200Z 2403/2503 VRB02KT 7000 NSC TEMPO 2403/2409 3000 BR TEMPO 2500/2503 3000 BR